Time;durP1;ratioP1;P1;durP2;ratioP2;P2;SDS_P1;SDS_P2;PMS_P1;PMS_P2;Temp;Humidity;BMP_temperature;BMP_pressure;BME280_temperature;BME280_humidity;BME280_pressure;Samples;Min_cycle;Max_cycle;Signal;HPM_P1;HPM_P2
2022/06/14 00:03:05;;;;;;;11.40;2.65;;;;;;;;;;4939203;28;20037;-65
2022/06/14 00:05:32;;;;;;;14.55;2.92;;;;;;;;;;4941166;28;20037;-67
2022/06/14 00:08:00;;;;;;;13.15;3.03;;;;;;;;;;4935715;28;20014;-65
2022/06/14 00:10:28;;;;;;;13.07;2.60;;;;;;;;;;4924758;28;20034;-68
2022/06/14 00:12:55;;;;;;;9.63;2.47;;;;;;;;;;4932161;28;20122;-66
2022/06/14 00:15:23;;;;;;;11.88;2.40;;;;;;;;;;4937795;28;20458;-66
2022/06/14 00:17:51;;;;;;;8.52;1.92;;;;;;;;;;4940053;28;20037;-66
2022/06/14 00:20:18;;;;;;;8.00;1.80;;;;;;;;;;4935683;28;20110;-66
2022/06/14 00:22:46;;;;;;;6.90;1.80;;;;;;;;;;4932942;28;20299;-66
2022/06/14 00:25:32;;;;;;;7.30;1.70;;;;;;;;;;4934702;28;20489;-68
2022/06/14 00:28:01;;;;;;;6.25;1.65;;;;;;;;;;4937621;28;20051;-65
2022/06/14 00:30:28;;;;;;;6.53;1.50;;;;;;;;;;4953055;28;20495;-66
2022/06/14 00:32:55;;;;;;;5.53;1.60;;;;;;;;;;4956377;28;20026;-65
2022/06/14 00:35:23;;;;;;;8.98;2.03;;;;;;;;;;4962153;28;20038;-65
2022/06/14 00:37:50;;;;;;;7.90;2.25;;;;;;;;;;4949750;28;20030;-65
2022/06/14 00:40:21;;;;;;;8.93;2.42;;;;;;;;;;4965268;28;21482;-65
2022/06/14 00:42:48;;;;;;;7.03;1.85;;;;;;;;;;4956534;28;20030;-65
2022/06/14 00:45:17;;;;;;;6.53;1.70;;;;;;;;;;4958354;28;20359;-65
2022/06/14 00:47:52;;;;;;;8.93;1.33;;;;;;;;;;4958777;28;20772;-65
2022/06/14 00:50:25;;;;;;;5.88;1.00;;;;;;;;;;4958302;28;20038;-65
2022/06/14 00:53:05;;;;;;;5.00;1.30;;;;;;;;;;4952759;28;20545;-65
2022/06/14 00:55:36;;;;;;;3.83;1.13;;;;;;;;;;4953511;28;20031;-65
2022/06/14 00:58:06;;;;;;;5.75;1.20;;;;;;;;;;4960103;28;20033;-65
2022/06/14 01:00:36;;;;;;;5.10;1.20;;;;;;;;;;4961387;28;20117;-65
2022/06/14 01:03:07;;;;;;;7.05;1.27;;;;;;;;;;4958522;28;20391;-65
2022/06/14 01:08:22;;;;;;;4.90;1.10;;;;;;;;;;4956773;28;20092;-65
2022/06/14 01:10:49;;;;;;;4.22;1.10;;;;;;;;;;4952721;28;20054;-66
2022/06/14 01:13:17;;;;;;;6.78;1.00;;;;;;;;;;4948106;28;20547;-65
2022/06/14 01:15:44;;;;;;;2.95;0.90;;;;;;;;;;4954971;28;20481;-66
2022/06/14 01:18:12;;;;;;;3.88;0.93;;;;;;;;;;4958245;28;20026;-66
2022/06/14 01:20:39;;;;;;;5.63;1.17;;;;;;;;;;4956066;28;20593;-66
2022/06/14 01:23:08;;;;;;;5.50;1.38;;;;;;;;;;4957394;28;20030;-66
2022/06/14 01:25:36;;;;;;;10.10;2.00;;;;;;;;;;4938791;28;20034;-68
2022/06/14 01:28:03;;;;;;;6.68;1.70;;;;;;;;;;4950355;28;20596;-65
2022/06/14 01:30:31;;;;;;;8.48;2.15;;;;;;;;;;4938366;28;21628;-65
2022/06/14 01:33:09;;;;;;;8.93;2.10;;;;;;;;;;4933776;28;20523;-68
2022/06/14 01:35:37;;;;;;;7.28;1.98;;;;;;;;;;4942406;28;20118;-68
2022/06/14 01:38:07;;;;;;;6.03;1.65;;;;;;;;;;4937717;28;20023;-66
2022/06/14 01:40:39;;;;;;;10.18;2.10;;;;;;;;;;4941269;28;20042;-66
2022/06/14 01:43:23;;;;;;;9.05;1.67;;;;;;;;;;4935761;28;20118;-66
2022/06/14 01:46:02;;;;;;;7.15;1.55;;;;;;;;;;4937191;28;20066;-66
2022/06/14 01:48:37;;;;;;;10.55;1.80;;;;;;;;;;4937954;28;20274;-66
2022/06/14 01:54:10;;;;;;;6.85;1.42;;;;;;;;;;4935350;28;20045;-66
2022/06/14 01:56:45;;;;;;;7.05;1.80;;;;;;;;;;4939756;28;20109;-66
2022/06/14 01:59:42;;;;;;;7.07;1.55;;;;;;;;;;4940044;28;20030;-66
2022/06/14 02:02:27;;;;;;;4.43;1.10;;;;;;;;;;4882962;29;20528;-66
2022/06/14 02:05:15;;;;;;;5.22;1.02;;;;;;;;;;4875101;29;20036;-66
2022/06/14 02:07:53;;;;;;;3.17;0.90;;;;;;;;;;4867798;29;20063;-66
2022/06/14 02:10:19;;;;;;;3.97;1.00;;;;;;;;;;4862466;29;20615;-66
2022/06/14 02:13:05;;;;;;;3.13;0.90;;;;;;;;;;4876799;29;20044;-66
2022/06/14 02:15:49;;;;;;;6.00;0.98;;;;;;;;;;4865955;29;20024;-66
2022/06/14 02:18:26;;;;;;;5.72;1.10;;;;;;;;;;4858618;29;20456;-66
2022/06/14 02:21:11;;;;;;;2.05;0.70;;;;;;;;;;4876701;29;20040;-66
2022/06/14 02:23:41;;;;;;;5.15;0.80;;;;;;;;;;4876877;29;20056;-66
2022/06/14 02:26:24;;;;;;;4.80;0.93;;;;;;;;;;4862446;29;20455;-66
2022/06/14 02:28:57;;;;;;;4.18;0.90;;;;;;;;;;4864523;29;20048;-66
2022/06/14 02:31:45;;;;;;;3.20;0.70;;;;;;;;;;4877656;29;20874;-66
2022/06/14 02:34:19;;;;;;;2.72;0.80;;;;;;;;;;4879950;29;20040;-66
2022/06/14 02:36:56;;;;;;;5.50;1.00;;;;;;;;;;4860538;29;20037;-66
2022/06/14 02:39:32;;;;;;;4.22;0.98;;;;;;;;;;4913562;28;20072;-66
2022/06/14 02:42:20;;;;;;;5.18;1.00;;;;;;;;;;4918346;28;20330;-68
2022/06/14 02:44:55;;;;;;;3.47;0.90;;;;;;;;;;4916731;28;20043;-67
2022/06/14 02:47:41;;;;;;;6.50;1.20;;;;;;;;;;4935069;28;20466;-67
2022/06/14 02:50:12;;;;;;;5.20;1.20;;;;;;;;;;4939570;28;20494;-67
2022/06/14 02:52:59;;;;;;;5.45;1.20;;;;;;;;;;4933088;28;20036;-65
2022/06/14 02:55:28;;;;;;;5.95;1.25;;;;;;;;;;4935271;28;20034;-65
2022/06/14 02:57:55;;;;;;;4.38;1.33;;;;;;;;;;4915980;28;20043;-68
2022/06/14 03:00:28;;;;;;;5.90;1.50;;;;;;;;;;4932817;28;20483;-68
2022/06/14 03:03:00;;;;;;;7.32;1.42;;;;;;;;;;4930287;28;20058;-65
2022/06/14 03:05:49;;;;;;;5.28;1.23;;;;;;;;;;4934646;28;20030;-66
2022/06/14 03:08:26;;;;;;;5.78;1.30;;;;;;;;;;4919076;28;20394;-65
2022/06/14 03:10:53;;;;;;;5.57;1.23;;;;;;;;;;4925922;28;20389;-68
2022/06/14 03:13:32;;;;;;;7.40;1.20;;;;;;;;;;4936792;28;20035;-67
2022/06/14 03:16:07;;;;;;;6.15;1.20;;;;;;;;;;4939834;28;20375;-65
2022/06/14 03:18:46;;;;;;;5.10;1.27;;;;;;;;;;4917859;28;21181;-67
2022/06/14 03:21:35;;;;;;;7.57;1.60;;;;;;;;;;4935321;28;20066;-65
2022/06/14 03:24:13;;;;;;;6.32;1.35;;;;;;;;;;4929386;28;20033;-65
2022/06/14 03:26:50;;;;;;;5.75;1.30;;;;;;;;;;4931368;28;20058;-67
2022/06/14 03:29:16;;;;;;;6.00;1.20;;;;;;;;;;4953887;28;20054;-67
2022/06/14 03:31:48;;;;;;;7.57;1.60;;;;;;;;;;4954922;28;20026;-65
2022/06/14 03:34:32;;;;;;;6.60;1.50;;;;;;;;;;4965341;28;20038;-65
2022/06/14 03:36:59;;;;;;;6.65;1.40;;;;;;;;;;4953293;28;20042;-68
2022/06/14 03:39:29;;;;;;;10.05;1.88;;;;;;;;;;4957510;28;20061;-67
2022/06/14 03:41:57;;;;;;;8.52;1.80;;;;;;;;;;4953144;28;20030;-65
2022/06/14 03:44:26;;;;;;;4.90;1.33;;;;;;;;;;4957519;28;20035;-65
2022/06/14 03:47:12;;;;;;;7.85;1.98;;;;;;;;;;4953379;28;20022;-68
2022/06/14 03:49:39;;;;;;;7.45;1.45;;;;;;;;;;4950978;28;20433;-66
2022/06/14 03:52:10;;;;;;;4.97;1.42;;;;;;;;;;4951566;28;20425;-65
2022/06/14 03:54:55;;;;;;;6.63;1.52;;;;;;;;;;4955142;28;20038;-66
2022/06/14 03:57:44;;;;;;;5.25;1.30;;;;;;;;;;4953751;28;20124;-66
2022/06/14 04:00:25;;;;;;;6.97;1.50;;;;;;;;;;4954278;28;20121;-66
2022/06/14 04:02:56;;;;;;;7.65;1.40;;;;;;;;;;4949370;28;20394;-66
2022/06/14 04:06:02;;;;;;;5.00;1.40;;;;;;;;;;4957162;28;20093;-66
2022/06/14 04:08:48;;;;;;;6.30;1.55;;;;;;;;;;4900141;29;20035;-66
2022/06/14 04:11:33;;;;;;;6.75;1.48;;;;;;;;;;4905743;29;20042;-66
2022/06/14 04:14:18;;;;;;;4.80;1.42;;;;;;;;;;4902758;29;20130;-65
2022/06/14 04:17:00;;;;;;;6.63;1.58;;;;;;;;;;4898423;29;20028;-66
2022/06/14 04:19:51;;;;;;;6.47;1.40;;;;;;;;;;4896106;29;20075;-66
2022/06/14 04:22:32;;;;;;;6.53;1.42;;;;;;;;;;4882808;29;20030;-66
2022/06/14 04:25:24;;;;;;;7.28;1.50;;;;;;;;;;4900203;29;20446;-66
2022/06/14 04:27:50;;;;;;;10.02;2.08;;;;;;;;;;4893232;29;20087;-66
2022/06/14 04:30:31;;;;;;;8.43;1.83;;;;;;;;;;4898197;29;20038;-66
2022/06/14 04:32:57;;;;;;;7.20;1.77;;;;;;;;;;4896857;29;20055;-65
2022/06/14 04:35:33;;;;;;;7.47;1.40;;;;;;;;;;4892881;29;20059;-66
2022/06/14 04:38:13;;;;;;;10.02;2.00;;;;;;;;;;4892568;29;20910;-66
2022/06/14 04:40:50;;;;;;;5.65;1.73;;;;;;;;;;4952325;28;20120;-65
2022/06/14 04:43:21;;;;;;;8.50;2.00;;;;;;;;;;4957916;28;20050;-66
2022/06/14 04:45:55;;;;;;;13.75;2.40;;;;;;;;;;4955077;28;20513;-65
2022/06/14 04:48:48;;;;;;;11.00;2.00;;;;;;;;;;4955074;28;20030;-66
2022/06/14 04:51:41;;;;;;;6.18;1.70;;;;;;;;;;4901372;29;20050;-66
2022/06/14 04:54:15;;;;;;;7.57;2.08;;;;;;;;;;4890353;29;20131;-69
2022/06/14 04:56:43;;;;;;;8.20;1.83;;;;;;;;;;4874335;29;20426;-69
2022/06/14 04:59:11;;;;;;;6.75;1.70;;;;;;;;;;4899628;29;20039;-69
2022/06/14 05:01:43;;;;;;;8.82;2.20;;;;;;;;;;4893651;28;20058;-69
2022/06/14 05:04:14;;;;;;;6.38;1.45;;;;;;;;;;4895021;29;20040;-69
2022/06/14 05:06:43;;;;;;;8.18;1.75;;;;;;;;;;4895307;29;20070;-69
2022/06/14 05:09:14;;;;;;;8.13;1.98;;;;;;;;;;4897372;29;20039;-70
2022/06/14 05:11:58;;;;;;;8.57;1.73;;;;;;;;;;4896660;29;20598;-69
2022/06/14 05:14:27;;;;;;;8.95;2.10;;;;;;;;;;4897915;29;20482;-69
2022/06/14 05:16:56;;;;;;;9.68;2.30;;;;;;;;;;4895851;29;20042;-69
2022/06/14 05:19:26;;;;;;;9.10;1.90;;;;;;;;;;4898256;29;20556;-69
2022/06/14 05:21:56;;;;;;;6.93;1.70;;;;;;;;;;4896781;29;20247;-70
2022/06/14 05:24:22;;;;;;;6.72;1.80;;;;;;;;;;4897405;29;20304;-69
2022/06/14 05:27:03;;;;;;;13.63;2.53;;;;;;;;;;4895812;29;20032;-69
2022/06/14 05:29:35;;;;;;;13.52;2.70;;;;;;;;;;4956065;28;20058;-69
2022/06/14 05:32:17;;;;;;;11.27;2.47;;;;;;;;;;4955813;28;20041;-70
2022/06/14 05:34:43;;;;;;;9.13;1.70;;;;;;;;;;4939416;28;20085;-69
2022/06/14 05:37:09;;;;;;;9.25;1.80;;;;;;;;;;4956321;28;20046;-69
2022/06/14 05:39:55;;;;;;;5.20;1.45;;;;;;;;;;4951660;28;20579;-70
2022/06/14 05:42:23;;;;;;;11.45;1.80;;;;;;;;;;4952353;28;20560;-69
2022/06/14 05:44:52;;;;;;;10.98;1.60;;;;;;;;;;4947702;28;20417;-70
2022/06/14 05:47:21;;;;;;;11.57;1.70;;;;;;;;;;4950725;28;20100;-69
2022/06/14 05:49:53;;;;;;;9.63;1.83;;;;;;;;;;4958239;28;20042;-70
2022/06/14 05:52:25;;;;;;;9.23;1.80;;;;;;;;;;4956393;28;20030;-69
2022/06/14 05:55:03;;;;;;;7.47;1.60;;;;;;;;;;4959622;28;20042;-70
2022/06/14 05:57:46;;;;;;;9.23;1.55;;;;;;;;;;4953808;28;20741;-70
2022/06/14 06:00:20;;;;;;;5.93;1.45;;;;;;;;;;4951518;28;20031;-70
2022/06/14 06:02:56;;;;;;;5.05;1.20;;;;;;;;;;4951219;28;20035;-70
2022/06/14 06:05:33;;;;;;;10.73;1.45;;;;;;;;;;4949971;28;20035;-69
2022/06/14 06:08:24;;;;;;;5.70;1.25;;;;;;;;;;4948722;28;20419;-69
2022/06/14 06:10:55;;;;;;;9.98;1.60;;;;;;;;;;4942397;28;20049;-70
2022/06/14 06:13:29;;;;;;;9.70;1.50;;;;;;;;;;4949412;28;20030;-69
2022/06/14 06:16:13;;;;;;;6.07;1.40;;;;;;;;;;4951050;28;20030;-70
2022/06/14 06:18:53;;;;;;;8.75;1.55;;;;;;;;;;4949406;28;20455;-69
2022/06/14 06:21:26;;;;;;;7.85;1.35;;;;;;;;;;4949046;28;20798;-71
2022/06/14 06:23:59;;;;;;;10.65;1.80;;;;;;;;;;4948785;28;20563;-70
2022/06/14 06:26:28;;;;;;;8.18;1.65;;;;;;;;;;4949023;28;20078;-70
2022/06/14 06:29:01;;;;;;;13.65;2.33;;;;;;;;;;4947865;28;20054;-70
2022/06/14 06:31:35;;;;;;;11.10;2.00;;;;;;;;;;4956056;28;20441;-70
2022/06/14 06:34:04;;;;;;;12.88;1.92;;;;;;;;;;4957789;28;20045;-70
2022/06/14 06:36:43;;;;;;;10.63;2.13;;;;;;;;;;4953136;28;20029;-70
2022/06/14 06:39:28;;;;;;;12.10;2.20;;;;;;;;;;4951367;28;20509;-70
2022/06/14 06:42:00;;;;;;;10.25;1.95;;;;;;;;;;4943495;28;20031;-70
2022/06/14 06:44:43;;;;;;;11.18;1.77;;;;;;;;;;4946947;28;20636;-70
2022/06/14 06:47:15;;;;;;;7.65;1.52;;;;;;;;;;4939375;28;20030;-70
2022/06/14 06:50:02;;;;;;;9.05;1.50;;;;;;;;;;4947285;28;20046;-70
2022/06/14 06:52:39;;;;;;;9.77;2.08;;;;;;;;;;4950983;28;20427;-70
2022/06/14 06:55:10;;;;;;;10.50;1.70;;;;;;;;;;4960979;28;20038;-70
2022/06/14 06:57:36;;;;;;;7.70;1.35;;;;;;;;;;4954575;28;20393;-70
2022/06/14 07:00:04;;;;;;;5.53;1.05;;;;;;;;;;4956213;28;20034;-70
2022/06/14 07:02:41;;;;;;;6.20;1.35;;;;;;;;;;4950170;28;20023;-71
2022/06/14 07:05:14;;;;;;;9.80;1.88;;;;;;;;;;4957834;28;20480;-70
2022/06/14 07:07:53;;;;;;;10.07;1.70;;;;;;;;;;4947660;28;20058;-70
2022/06/14 07:10:40;;;;;;;6.80;1.20;;;;;;;;;;4953819;28;20022;-70
2022/06/14 07:13:14;;;;;;;11.15;1.50;;;;;;;;;;4960991;28;20500;-70
2022/06/14 07:15:59;;;;;;;9.57;1.48;;;;;;;;;;4951293;28;20271;-70
2022/06/14 07:18:28;;;;;;;11.13;1.67;;;;;;;;;;4937843;28;20445;-70
2022/06/14 07:21:00;;;;;;;12.20;1.92;;;;;;;;;;4951428;28;20449;-70
2022/06/14 07:23:50;;;;;;;10.80;1.35;;;;;;;;;;4955986;28;20343;-70
2022/06/14 07:26:22;;;;;;;10.40;1.10;;;;;;;;;;4942848;28;20062;-70
2022/06/14 07:28:48;;;;;;;6.53;0.90;;;;;;;;;;4938798;28;20051;-70
2022/06/14 07:31:28;;;;;;;5.50;0.90;;;;;;;;;;4932021;28;21312;-70
2022/06/14 07:33:55;;;;;;;4.15;0.80;;;;;;;;;;4927321;28;20026;-71
2022/06/14 07:36:41;;;;;;;7.50;0.98;;;;;;;;;;4931328;28;20041;-70
2022/06/14 07:39:24;;;;;;;7.85;1.23;;;;;;;;;;4936450;28;20031;-70
2022/06/14 07:41:56;;;;;;;5.65;0.75;;;;;;;;;;4931902;28;20039;-70
2022/06/14 07:44:51;;;;;;;6.03;0.90;;;;;;;;;;4928556;28;20019;-70
2022/06/14 07:47:18;;;;;;;12.50;1.23;;;;;;;;;;4844414;29;20084;-70
2022/06/14 07:49:53;;;;;;;8.50;1.10;;;;;;;;;;4856459;29;20103;-70
2022/06/14 07:52:31;;;;;;;7.07;1.03;;;;;;;;;;4861649;29;20400;-70
2022/06/14 07:55:03;;;;;;;6.57;0.88;;;;;;;;;;4856273;29;21602;-70
2022/06/14 07:57:34;;;;;;;9.65;0.90;;;;;;;;;;4848769;29;20639;-70
2022/06/14 08:03:03;;;;;;;9.65;1.15;;;;;;;;;;4859875;29;20124;-69
2022/06/14 08:05:34;;;;;;;12.25;1.38;;;;;;;;;;4841995;29;20044;-70
2022/06/14 08:08:04;;;;;;;9.88;1.20;;;;;;;;;;4856254;29;20033;-69
2022/06/14 08:10:37;;;;;;;3.85;0.80;;;;;;;;;;4844307;29;20530;-68
2022/06/14 08:13:09;;;;;;;9.00;1.10;;;;;;;;;;4844356;29;20080;-70
2022/06/14 08:15:57;;;;;;;5.57;0.80;;;;;;;;;;4855706;29;20544;-68
2022/06/14 08:18:23;;;;;;;12.88;1.25;;;;;;;;;;4856094;29;20074;-69
2022/06/14 08:21:01;;;;;;;15.40;1.67;;;;;;;;;;4839943;29;20032;-69
2022/06/14 08:23:50;;;;;;;12.50;1.25;;;;;;;;;;4885086;28;20324;-69
2022/06/14 08:26:35;;;;;;;8.60;1.00;;;;;;;;;;4933134;28;20380;-69
2022/06/14 08:29:20;;;;;;;11.23;0.90;;;;;;;;;;4916873;28;20050;-69
2022/06/14 08:32:00;;;;;;;7.45;1.00;;;;;;;;;;4935218;28;20054;-68
2022/06/14 08:34:40;;;;;;;6.18;0.80;;;;;;;;;;4920918;28;20398;-69
2022/06/14 08:37:22;;;;;;;3.03;0.77;;;;;;;;;;4938415;28;20041;-69
2022/06/14 08:39:53;;;;;;;3.20;0.57;;;;;;;;;;4929333;28;20486;-69
2022/06/14 08:42:46;;;;;;;2.35;0.52;;;;;;;;;;4936086;28;20356;-69
2022/06/14 08:45:18;;;;;;;1.63;0.50;;;;;;;;;;4930851;28;20035;-69
2022/06/14 08:48:04;;;;;;;3.53;0.45;;;;;;;;;;4912664;28;20098;-69
2022/06/14 08:50:32;;;;;;;;;;;;;;;;;;4942167;28;20038;-71
2022/06/14 08:53:17;;;;;;;2.95;0.60;;;;;;;;;;4935767;28;21168;-68
2022/06/14 08:55:52;;;;;;;3.95;0.57;;;;;;;;;;4936386;28;20047;-68
2022/06/14 08:58:18;;;;;;;;;;;;;;;;;;4936678;28;20071;-68
2022/06/14 09:00:45;;;;;;;2.92;0.60;;;;;;;;;;4940152;28;19922;-68
2022/06/14 09:03:17;;;;;;;1.55;0.50;;;;;;;;;;4946373;28;20418;-69
2022/06/14 09:05:50;;;;;;;7.57;0.70;;;;;;;;;;4936541;28;20137;-69
2022/06/14 09:08:36;;;;;;;5.65;0.70;;;;;;;;;;4946655;28;20026;-69
2022/06/14 09:11:17;;;;;;;3.72;0.73;;;;;;;;;;4941817;28;20030;-69
2022/06/14 09:14:05;;;;;;;3.03;0.77;;;;;;;;;;4918613;28;20035;-68
2022/06/14 09:16:41;;;;;;;2.72;0.90;;;;;;;;;;4927826;28;20045;-68
2022/06/14 09:19:28;;;;;;;5.53;1.30;;;;;;;;;;4937839;28;20520;-69
2022/06/14 09:21:54;;;;;;;5.05;1.13;;;;;;;;;;4935507;28;20062;-68
2022/06/14 09:24:27;;;;;;;8.00;1.23;;;;;;;;;;4942282;28;20027;-68
2022/06/14 09:26:59;;;;;;;3.13;0.70;;;;;;;;;;4932427;28;20034;-68
2022/06/14 09:29:25;;;;;;;4.90;1.00;;;;;;;;;;4944468;28;20054;-69
2022/06/14 09:32:10;;;;;;;4.70;1.00;;;;;;;;;;4936718;28;20030;-68
2022/06/14 09:35:05;;;;;;;2.70;0.80;;;;;;;;;;4940472;28;20081;-69
2022/06/14 09:37:43;;;;;;;2.88;0.65;;;;;;;;;;4885207;29;20398;-69
2022/06/14 09:40:28;;;;;;;5.18;0.55;;;;;;;;;;4884817;29;20036;-68
2022/06/14 09:43:08;;;;;;;25.83;2.70;;;;;;;;;;4879418;29;20152;-69
2022/06/14 09:45:47;;;;;;;3.08;0.70;;;;;;;;;;4885820;29;20032;-68
2022/06/14 09:48:14;;;;;;;3.15;0.65;;;;;;;;;;4882569;29;20446;-68
2022/06/14 09:50:58;;;;;;;2.85;0.50;;;;;;;;;;4876832;29;20472;-70
2022/06/14 09:53:27;;;;;;;3.47;0.60;;;;;;;;;;4883526;29;20499;-70
2022/06/14 09:56:21;;;;;;;5.25;0.57;;;;;;;;;;4883329;29;20185;-70
2022/06/14 09:58:59;;;;;;;12.45;1.58;;;;;;;;;;4860903;29;20047;-68
2022/06/14 10:01:38;;;;;;;3.90;0.68;;;;;;;;;;4869547;29;20456;-70
2022/06/14 10:04:10;;;;;;;3.33;0.57;;;;;;;;;;4893533;29;20498;-70
2022/06/14 10:06:48;;;;;;;1.67;0.50;;;;;;;;;;4889089;29;20494;-68
2022/06/14 10:09:45;;;;;;;1.52;0.50;;;;;;;;;;4888982;29;20135;-70
2022/06/14 10:12:30;;;;;;;1.70;0.47;;;;;;;;;;4883478;29;20051;-69
2022/06/14 10:15:13;;;;;;;2.50;0.50;;;;;;;;;;4941970;28;20073;-68
2022/06/14 10:18:13;;;;;;;3.25;0.40;;;;;;;;;;4946410;28;20532;-68
2022/06/14 10:20:52;;;;;;;3.78;0.60;;;;;;;;;;4862849;29;20091;-69
2022/06/14 10:23:37;;;;;;;4.13;0.60;;;;;;;;;;4868703;29;20407;-68
2022/06/14 10:29:19;;;;;;;4.57;0.65;;;;;;;;;;4877029;29;20328;-69
2022/06/14 10:31:46;;;;;;;2.13;0.50;;;;;;;;;;4880644;29;20028;-69
2022/06/14 10:34:37;;;;;;;3.38;0.50;;;;;;;;;;4883487;29;20334;-68
2022/06/14 10:37:23;;;;;;;2.67;0.52;;;;;;;;;;4880800;29;20059;-68
2022/06/14 10:40:01;;;;;;;3.15;0.60;;;;;;;;;;4884347;29;20292;-68
2022/06/14 10:42:48;;;;;;;6.00;0.90;;;;;;;;;;4881961;29;20024;-69
2022/06/14 10:45:37;;;;;;;3.05;0.60;;;;;;;;;;4886285;29;20040;-68
2022/06/14 10:48:22;;;;;;;2.88;0.65;;;;;;;;;;4868549;29;20036;-68
2022/06/14 10:51:03;;;;;;;2.80;0.68;;;;;;;;;;4879372;29;20055;-69
2022/06/14 10:53:48;;;;;;;3.72;0.73;;;;;;;;;;4883203;29;20381;-69
2022/06/14 10:56:40;;;;;;;4.22;0.80;;;;;;;;;;4915543;28;20065;-69
2022/06/14 10:59:16;;;;;;;2.25;0.50;;;;;;;;;;4941504;28;20342;-69
2022/06/14 11:01:46;;;;;;;3.83;0.60;;;;;;;;;;4936900;28;20031;-69
2022/06/14 11:04:25;;;;;;;2.78;0.57;;;;;;;;;;4929877;28;20042;-70
2022/06/14 11:07:09;;;;;;;5.28;0.60;;;;;;;;;;4936635;28;20105;-69
2022/06/14 11:10:11;;;;;;;3.35;0.60;;;;;;;;;;4958048;28;20189;-68
2022/06/14 11:13:03;;;;;;;3.55;0.70;;;;;;;;;;4882631;29;20036;-69
2022/06/14 11:15:40;;;;;;;3.95;0.88;;;;;;;;;;4878015;29;20445;-67
2022/06/14 11:18:20;;;;;;;5.70;0.80;;;;;;;;;;4880958;29;20796;-70
2022/06/14 11:20:58;;;;;;;4.32;0.75;;;;;;;;;;4875998;29;20056;-68
2022/06/14 11:23:40;;;;;;;4.47;0.80;;;;;;;;;;4880686;29;20578;-68
2022/06/14 11:26:17;;;;;;;3.45;0.80;;;;;;;;;;4879504;29;20558;-67
2022/06/14 11:28:52;;;;;;;6.05;1.40;;;;;;;;;;4879130;29;21092;-68
2022/06/14 11:31:37;;;;;;;3.38;0.70;;;;;;;;;;4879186;29;20056;-66
2022/06/14 11:34:03;;;;;;;6.50;1.02;;;;;;;;;;4881580;29;20056;-65
2022/06/14 11:36:35;;;;;;;4.15;0.80;;;;;;;;;;4878237;29;20035;-65
2022/06/14 11:39:01;;;;;;;6.03;1.02;;;;;;;;;;4875041;29;20048;-66
2022/06/14 11:41:31;;;;;;;7.25;0.98;;;;;;;;;;4880510;29;20047;-66
2022/06/14 11:43:57;;;;;;;9.05;1.05;;;;;;;;;;4876009;29;20131;-67
2022/06/14 11:46:43;;;;;;;4.97;0.75;;;;;;;;;;4886075;28;20435;-66
2022/06/14 11:49:24;;;;;;;3.90;0.85;;;;;;;;;;4937513;28;20023;-66
2022/06/14 11:51:50;;;;;;;7.68;1.00;;;;;;;;;;4931965;28;20060;-66
2022/06/14 11:54:26;;;;;;;6.05;0.90;;;;;;;;;;4942501;28;20237;-66
2022/06/14 11:57:14;;;;;;;6.18;0.85;;;;;;;;;;4936693;28;20114;-66
2022/06/14 11:59:57;;;;;;;4.93;0.90;;;;;;;;;;4937708;28;20109;-66
2022/06/14 12:02:38;;;;;;;7.78;1.10;;;;;;;;;;4931121;28;20069;-66
2022/06/14 12:05:08;;;;;;;2.78;0.70;;;;;;;;;;4942167;28;20090;-67
2022/06/14 12:07:42;;;;;;;9.40;1.60;;;;;;;;;;4933155;28;20030;-65
2022/06/14 12:10:26;;;;;;;6.07;0.98;;;;;;;;;;4940073;28;20039;-68
2022/06/14 12:12:58;;;;;;;5.10;0.82;;;;;;;;;;4937303;28;20093;-68
2022/06/14 12:15:31;;;;;;;3.97;0.93;;;;;;;;;;4935937;28;20081;-66
2022/06/14 12:18:01;;;;;;;4.57;0.80;;;;;;;;;;4938918;28;21109;-68
2022/06/14 12:20:31;;;;;;;5.18;0.60;;;;;;;;;;4942112;28;20393;-66
2022/06/14 12:23:15;;;;;;;7.35;0.70;;;;;;;;;;4939943;28;22080;-66
2022/06/14 12:29:02;;;;;;;5.25;0.98;;;;;;;;;;4945676;28;20138;-66
2022/06/14 12:31:47;;;;;;;5.32;1.05;;;;;;;;;;4951457;28;20465;-66
2022/06/14 12:34:22;;;;;;;5.05;0.90;;;;;;;;;;4947896;28;20068;-66
2022/06/14 12:36:57;;;;;;;3.88;0.70;;;;;;;;;;4944666;28;20045;-68
2022/06/14 12:39:38;;;;;;;6.50;0.90;;;;;;;;;;4946903;28;20055;-66
2022/06/14 12:42:07;;;;;;;19.42;2.78;;;;;;;;;;4948902;28;20099;-66
2022/06/14 12:44:49;;;;;;;6.75;1.13;;;;;;;;;;4944051;28;20031;-66
2022/06/14 12:47:21;;;;;;;3.28;0.85;;;;;;;;;;4946463;28;20047;-66
2022/06/14 12:49:50;;;;;;;3.72;0.70;;;;;;;;;;4942498;28;20030;-67
2022/06/14 12:52:27;;;;;;;3.80;0.75;;;;;;;;;;4947276;28;20038;-66
2022/06/14 12:54:58;;;;;;;6.72;0.93;;;;;;;;;;4943319;28;20279;-68
2022/06/14 12:57:33;;;;;;;4.18;0.80;;;;;;;;;;4947672;28;20861;-66
2022/06/14 13:00:18;;;;;;;5.78;0.90;;;;;;;;;;4941910;28;20600;-67
2022/06/14 13:02:52;;;;;;;1.92;0.70;;;;;;;;;;4946213;28;20045;-68
2022/06/14 13:05:21;;;;;;;3.17;0.90;;;;;;;;;;4930247;28;20034;-67
2022/06/14 13:08:02;;;;;;;4.47;0.90;;;;;;;;;;4945187;28;21043;-67
2022/06/14 13:10:38;;;;;;;5.20;0.80;;;;;;;;;;4948140;28;20298;-66
2022/06/14 13:13:33;;;;;;;5.53;0.80;;;;;;;;;;4948170;28;20421;-66
2022/06/14 13:16:04;;;;;;;3.92;1.00;;;;;;;;;;4867885;29;20218;-66
2022/06/14 13:18:43;;;;;;;6.13;1.00;;;;;;;;;;4870710;29;20490;-69
2022/06/14 13:21:17;;;;;;;4.47;0.90;;;;;;;;;;4872163;29;20383;-66
2022/06/14 13:23:57;;;;;;;3.40;0.80;;;;;;;;;;4868420;29;20463;-66
2022/06/14 13:26:44;;;;;;;5.68;0.70;;;;;;;;;;4870390;29;20344;-67
2022/06/14 13:29:23;;;;;;;3.00;0.70;;;;;;;;;;4893918;29;20131;-68
2022/06/14 13:31:56;;;;;;;5.32;1.10;;;;;;;;;;4904224;29;20525;-67
2022/06/14 13:34:39;;;;;;;3.67;0.90;;;;;;;;;;4892479;29;20170;-66
2022/06/14 13:37:17;;;;;;;5.03;0.60;;;;;;;;;;4906657;29;20147;-67
2022/06/14 13:39:49;;;;;;;5.68;0.73;;;;;;;;;;4902424;29;20194;-67
2022/06/14 13:42:21;;;;;;;2.25;0.60;;;;;;;;;;4905722;29;20038;-68
2022/06/14 13:44:59;;;;;;;2.42;0.60;;;;;;;;;;4904399;29;20023;-67
2022/06/14 13:47:39;;;;;;;5.95;0.80;;;;;;;;;;4906718;29;20547;-67
2022/06/14 13:50:10;;;;;;;3.60;0.57;;;;;;;;;;4908338;29;20131;-68
2022/06/14 13:52:41;;;;;;;1.85;0.60;;;;;;;;;;4930942;28;20054;-67
2022/06/14 13:55:16;;;;;;;2.63;0.60;;;;;;;;;;4964430;28;20041;-68
2022/06/14 13:58:01;;;;;;;4.10;0.70;;;;;;;;;;4942997;28;20066;-68
2022/06/14 14:00:29;;;;;;;;;;;;;;;;;;4958119;28;20137;-68
2022/06/14 14:03:16;;;;;;;2.35;0.60;;;;;;;;;;4960604;28;19991;-68
2022/06/14 14:05:46;;;;;;;3.40;0.60;;;;;;;;;;4961424;28;20092;-68
2022/06/14 14:08:31;;;;;;;3.15;0.60;;;;;;;;;;4961602;28;20439;-68
2022/06/14 14:11:08;;;;;;;3.40;0.80;;;;;;;;;;4957690;28;24015;-68
2022/06/14 14:14:08;;;;;;;3.63;0.68;;;;;;;;;;4965090;28;20773;-68
2022/06/14 14:16:47;;;;;;;2.60;0.70;;;;;;;;;;4884783;29;20041;-68
2022/06/14 14:19:29;;;;;;;3.05;0.50;;;;;;;;;;4885490;29;20048;-68
2022/06/14 14:22:21;;;;;;;3.30;0.70;;;;;;;;;;4880646;29;20028;-68
2022/06/14 14:24:50;;;;;;;4.20;0.80;;;;;;;;;;4861144;29;20401;-68
2022/06/14 14:27:19;;;;;;;2.80;0.68;;;;;;;;;;4886019;29;20091;-68
2022/06/14 14:30:00;;;;;;;5.72;0.90;;;;;;;;;;4885583;29;20088;-67
2022/06/14 14:33:03;;;;;;;5.32;0.63;;;;;;;;;;4883831;29;20052;-67
2022/06/14 14:35:40;;;;;;;5.47;0.93;;;;;;;;;;4813193;29;20666;-70
2022/06/14 14:38:33;;;;;;;4.15;0.80;;;;;;;;;;4813932;29;20166;-67
2022/06/14 14:44:04;;;;;;;5.30;0.60;;;;;;;;;;4813040;29;20129;-69
2022/06/14 14:46:33;;;;;;;3.60;0.70;;;;;;;;;;4817184;29;20521;-68
2022/06/14 14:49:15;;;;;;;5.47;0.85;;;;;;;;;;4816911;29;20761;-69
2022/06/14 14:51:47;;;;;;;2.80;0.73;;;;;;;;;;4832349;29;20036;-67
2022/06/14 14:54:42;;;;;;;4.65;0.80;;;;;;;;;;4870865;29;20036;-67
2022/06/14 14:57:14;;;;;;;6.35;0.95;;;;;;;;;;4869461;29;20056;-69
2022/06/14 14:59:46;;;;;;;4.25;0.70;;;;;;;;;;4869793;29;20044;-67
2022/06/14 15:05:22;;;;;;;4.75;1.02;;;;;;;;;;4868815;29;20040;-66
2022/06/14 15:07:52;;;;;;;7.05;1.00;;;;;;;;;;4871775;29;20354;-68
2022/06/14 15:10:29;;;;;;;3.70;0.80;;;;;;;;;;4950696;28;20567;-67
2022/06/14 15:13:00;;;;;;;3.38;0.65;;;;;;;;;;4953542;28;20030;-67
2022/06/14 15:15:38;;;;;;;2.70;0.68;;;;;;;;;;4966775;28;20045;-68
2022/06/14 15:21:03;;;;;;;4.07;0.80;;;;;;;;;;4964347;28;20120;-66
2022/06/14 15:23:29;;;;;;;4.50;0.85;;;;;;;;;;4962149;28;20235;-67
2022/06/14 15:25:57;;;;;;;4.68;0.98;;;;;;;;;;4958984;28;20137;-66
2022/06/14 15:28:26;;;;;;;8.05;0.95;;;;;;;;;;4948196;28;20053;-66
2022/06/14 15:30:53;;;;;;;5.15;1.00;;;;;;;;;;4956201;28;20113;-66
2022/06/14 15:33:34;;;;;;;3.92;0.80;;;;;;;;;;4960646;28;20039;-66
2022/06/14 15:36:20;;;;;;;4.10;0.85;;;;;;;;;;4964693;28;20109;-66
2022/06/14 15:38:47;;;;;;;4.72;0.68;;;;;;;;;;4957603;28;20060;-67
2022/06/14 15:41:36;;;;;;;5.65;1.05;;;;;;;;;;4960503;28;20479;-66
2022/06/14 15:44:12;;;;;;;5.07;1.00;;;;;;;;;;4936425;28;20076;-68
2022/06/14 15:46:47;;;;;;;6.15;1.00;;;;;;;;;;4961174;28;20137;-67
2022/06/14 15:49:15;;;;;;;3.28;0.85;;;;;;;;;;4964152;28;20038;-67
2022/06/14 15:51:41;;;;;;;3.58;0.80;;;;;;;;;;4956252;28;20134;-67
2022/06/14 15:54:17;;;;;;;4.68;0.95;;;;;;;;;;4952837;28;20053;-73
2022/06/14 15:56:52;;;;;;;7.22;1.00;;;;;;;;;;4961863;28;20457;-72
2022/06/14 15:59:29;;;;;;;4.47;1.00;;;;;;;;;;4961354;28;20035;-72
2022/06/14 16:01:57;;;;;;;3.38;0.98;;;;;;;;;;4959264;28;20620;-73
2022/06/14 16:04:35;;;;;;;5.43;0.80;;;;;;;;;;4959377;28;20076;-72